sensor_id;sensor_type;location;lat;lon;timestamp;pressure;altitude;pressure_sealevel;temperature;humidity
42951;BME280;28592;51.064;17.192;2022-08-21T00:02:50;99926.41;;;20.34;100.00
42951;BME280;28592;51.064;17.192;2022-08-21T00:05:39;99923.72;;;20.21;100.00
42951;BME280;28592;51.064;17.192;2022-08-21T00:08:24;99928.47;;;20.19;100.00
42951;BME280;28592;51.064;17.192;2022-08-21T00:11:13;99930.97;;;20.27;100.00
42951;BME280;28592;51.064;17.192;2022-08-21T00:13:58;99938.01;;;20.22;100.00
42951;BME280;28592;51.064;17.192;2022-08-21T00:16:44;99944.62;;;20.26;100.00
42951;BME280;28592;51.064;17.192;2022-08-21T00:19:31;99933.25;;;20.17;100.00
42951;BME280;28592;51.064;17.192;2022-08-21T00:22:16;99928.45;;;20.13;100.00
42951;BME280;28592;51.064;17.192;2022-08-21T00:25:06;99934.22;;;20.03;100.00
42951;BME280;28592;51.064;17.192;2022-08-21T00:27:53;99935.44;;;19.94;100.00
42951;BME280;28592;51.064;17.192;2022-08-21T00:30:39;99937.47;;;19.86;100.00
42951;BME280;28592;51.064;17.192;2022-08-21T00:33:25;99935.82;;;19.85;100.00
42951;BME280;28592;51.064;17.192;2022-08-21T00:36:13;99953.40;;;19.87;100.00
42951;BME280;28592;51.064;17.192;2022-08-21T00:39:00;99950.52;;;19.82;100.00
42951;BME280;28592;51.064;17.192;2022-08-21T00:41:45;99946.98;;;19.82;100.00
42951;BME280;28592;51.064;17.192;2022-08-21T00:44:31;99945.73;;;19.84;100.00
42951;BME280;28592;51.064;17.192;2022-08-21T00:47:18;99947.36;;;19.72;100.00
42951;BME280;28592;51.064;17.192;2022-08-21T00:50:07;99957.30;;;19.78;100.00
42951;BME280;28592;51.064;17.192;2022-08-21T00:52:53;99958.34;;;19.77;100.00
42951;BME280;28592;51.064;17.192;2022-08-21T00:55:39;99955.08;;;19.88;100.00
42951;BME280;28592;51.064;17.192;2022-08-21T00:58:27;99952.41;;;20.01;100.00
42951;BME280;28592;51.064;17.192;2022-08-21T01:01:15;99946.19;;;20.01;100.00
42951;BME280;28592;51.064;17.192;2022-08-21T01:04:01;99945.33;;;19.87;100.00
42951;BME280;28592;51.064;17.192;2022-08-21T01:06:46;99941.20;;;19.85;100.00
42951;BME280;28592;51.064;17.192;2022-08-21T01:09:32;99927.12;;;19.83;100.00
42951;BME280;28592;51.064;17.192;2022-08-21T01:12:18;99933.65;;;19.54;100.00
42951;BME280;28592;51.064;17.192;2022-08-21T01:15:05;99931.16;;;19.53;100.00
42951;BME280;28592;51.064;17.192;2022-08-21T01:17:53;99935.48;;;19.47;100.00
42951;BME280;28592;51.064;17.192;2022-08-21T01:20:43;99928.91;;;19.56;100.00
42951;BME280;28592;51.064;17.192;2022-08-21T01:23:30;99921.45;;;19.52;100.00
42951;BME280;28592;51.064;17.192;2022-08-21T01:26:17;99910.47;;;19.47;100.00
42951;BME280;28592;51.064;17.192;2022-08-21T01:29:22;99893.87;;;19.30;100.00
42951;BME280;28592;51.064;17.192;2022-08-21T01:31:58;99883.92;;;19.31;100.00
42951;BME280;28592;51.064;17.192;2022-08-21T01:34:46;99894.27;;;19.27;100.00
42951;BME280;28592;51.064;17.192;2022-08-21T01:37:32;99894.87;;;19.29;100.00
42951;BME280;28592;51.064;17.192;2022-08-21T01:40:18;99885.17;;;19.28;100.00
42951;BME280;28592;51.064;17.192;2022-08-21T01:43:03;99873.58;;;19.28;100.00
42951;BME280;28592;51.064;17.192;2022-08-21T01:45:48;99878.31;;;19.26;100.00
42951;BME280;28592;51.064;17.192;2022-08-21T01:48:35;99871.67;;;19.21;100.00
42951;BME280;28592;51.064;17.192;2022-08-21T01:51:23;99891.58;;;19.27;100.00
42951;BME280;28592;51.064;17.192;2022-08-21T01:54:09;99886.21;;;19.27;100.00
42951;BME280;28592;51.064;17.192;2022-08-21T01:56:55;99880.63;;;19.29;100.00
42951;BME280;28592;51.064;17.192;2022-08-21T01:59:41;99866.29;;;19.15;100.00
42951;BME280;28592;51.064;17.192;2022-08-21T02:02:30;99876.64;;;19.24;100.00
42951;BME280;28592;51.064;17.192;2022-08-21T02:05:15;99879.20;;;19.33;100.00
42951;BME280;28592;51.064;17.192;2022-08-21T02:08:01;99873.18;;;19.31;100.00
42951;BME280;28592;51.064;17.192;2022-08-21T02:10:47;99884.60;;;19.39;100.00
42951;BME280;28592;51.064;17.192;2022-08-21T02:13:35;99880.64;;;19.35;100.00
42951;BME280;28592;51.064;17.192;2022-08-21T02:16:20;99861.92;;;19.14;100.00
42951;BME280;28592;51.064;17.192;2022-08-21T02:19:06;99856.99;;;19.17;100.00
42951;BME280;28592;51.064;17.192;2022-08-21T02:21:52;99861.36;;;19.25;100.00
42951;BME280;28592;51.064;17.192;2022-08-21T02:24:38;99866.50;;;19.20;100.00
42951;BME280;28592;51.064;17.192;2022-08-21T02:27:24;99861.88;;;19.01;100.00
42951;BME280;28592;51.064;17.192;2022-08-21T02:30:12;99858.55;;;18.99;100.00
42951;BME280;28592;51.064;17.192;2022-08-21T02:32:58;99857.22;;;18.82;100.00
42951;BME280;28592;51.064;17.192;2022-08-21T02:35:45;99860.48;;;18.71;100.00
42951;BME280;28592;51.064;17.192;2022-08-21T02:38:33;99863.97;;;18.71;100.00
42951;BME280;28592;51.064;17.192;2022-08-21T02:41:25;99867.10;;;18.75;100.00
42951;BME280;28592;51.064;17.192;2022-08-21T02:44:13;99862.77;;;18.74;100.00
42951;BME280;28592;51.064;17.192;2022-08-21T02:46:59;99872.22;;;18.70;100.00
42951;BME280;28592;51.064;17.192;2022-08-21T02:49:44;99857.99;;;18.69;100.00
42951;BME280;28592;51.064;17.192;2022-08-21T02:52:29;99873.34;;;18.54;100.00
42951;BME280;28592;51.064;17.192;2022-08-21T02:55:15;99869.02;;;18.53;100.00
42951;BME280;28592;51.064;17.192;2022-08-21T02:58:07;99863.06;;;18.58;100.00
42951;BME280;28592;51.064;17.192;2022-08-21T03:00:55;99876.23;;;18.53;100.00
42951;BME280;28592;51.064;17.192;2022-08-21T03:03:43;99891.02;;;18.42;100.00
42951;BME280;28592;51.064;17.192;2022-08-21T03:06:29;99889.03;;;18.51;100.00
42951;BME280;28592;51.064;17.192;2022-08-21T03:09:14;99888.13;;;18.44;100.00
42951;BME280;28592;51.064;17.192;2022-08-21T03:12:00;99881.95;;;18.43;100.00
42951;BME280;28592;51.064;17.192;2022-08-21T03:14:46;99886.39;;;18.36;100.00
42951;BME280;28592;51.064;17.192;2022-08-21T03:17:31;99880.41;;;18.34;100.00
42951;BME280;28592;51.064;17.192;2022-08-21T03:20:23;99880.08;;;18.44;100.00
42951;BME280;28592;51.064;17.192;2022-08-21T03:23:09;99885.25;;;18.45;100.00
42951;BME280;28592;51.064;17.192;2022-08-21T03:25:56;99886.94;;;18.46;100.00
42951;BME280;28592;51.064;17.192;2022-08-21T03:28:41;99873.91;;;18.43;100.00
42951;BME280;28592;51.064;17.192;2022-08-21T03:31:26;99860.69;;;18.42;100.00
42951;BME280;28592;51.064;17.192;2022-08-21T03:34:16;99872.93;;;18.51;100.00
42951;BME280;28592;51.064;17.192;2022-08-21T03:37:02;99895.91;;;18.60;100.00
42951;BME280;28592;51.064;17.192;2022-08-21T03:39:48;99885.17;;;18.60;100.00
42951;BME280;28592;51.064;17.192;2022-08-21T03:42:33;99884.25;;;18.46;100.00
42951;BME280;28592;51.064;17.192;2022-08-21T03:45:19;99900.94;;;18.42;100.00
42951;BME280;28592;51.064;17.192;2022-08-21T03:48:06;99904.00;;;18.39;100.00
42951;BME280;28592;51.064;17.192;2022-08-21T03:50:52;99899.89;;;18.43;100.00
42951;BME280;28592;51.064;17.192;2022-08-21T03:53:38;99891.02;;;18.42;100.00
42951;BME280;28592;51.064;17.192;2022-08-21T03:56:24;99914.64;;;18.32;100.00
42951;BME280;28592;51.064;17.192;2022-08-21T03:59:09;99916.25;;;18.27;100.00
42951;BME280;28592;51.064;17.192;2022-08-21T04:02:00;99910.05;;;18.26;100.00
42951;BME280;28592;51.064;17.192;2022-08-21T04:04:48;99903.07;;;18.32;100.00
42951;BME280;28592;51.064;17.192;2022-08-21T04:07:39;99917.91;;;18.28;100.00
42951;BME280;28592;51.064;17.192;2022-08-21T04:10:26;99921.23;;;18.30;100.00
42951;BME280;28592;51.064;17.192;2022-08-21T04:13:12;99912.08;;;18.24;100.00
42951;BME280;28592;51.064;17.192;2022-08-21T04:15:59;99904.23;;;18.23;100.00
42951;BME280;28592;51.064;17.192;2022-08-21T04:18:44;99915.34;;;18.20;100.00
42951;BME280;28592;51.064;17.192;2022-08-21T04:21:30;99907.30;;;18.20;100.00
42951;BME280;28592;51.064;17.192;2022-08-21T04:24:16;99909.37;;;18.18;100.00
42951;BME280;28592;51.064;17.192;2022-08-21T04:27:03;99910.37;;;18.17;100.00
42951;BME280;28592;51.064;17.192;2022-08-21T04:29:49;99919.06;;;18.19;100.00
42951;BME280;28592;51.064;17.192;2022-08-21T04:32:36;99922.39;;;18.21;100.00
42951;BME280;28592;51.064;17.192;2022-08-21T04:35:24;99922.77;;;18.18;100.00
42951;BME280;28592;51.064;17.192;2022-08-21T04:38:10;99913.05;;;18.17;100.00
42951;BME280;28592;51.064;17.192;2022-08-21T04:40:56;99918.61;;;18.15;100.00
42951;BME280;28592;51.064;17.192;2022-08-21T04:43:41;99917.77;;;18.15;100.00
42951;BME280;28592;51.064;17.192;2022-08-21T04:46:27;99904.55;;;18.13;100.00
42951;BME280;28592;51.064;17.192;2022-08-21T04:49:16;99890.53;;;18.11;100.00
42951;BME280;28592;51.064;17.192;2022-08-21T04:52:02;99910.75;;;18.14;100.00
42951;BME280;28592;51.064;17.192;2022-08-21T04:54:50;99899.38;;;18.12;100.00
42951;BME280;28592;51.064;17.192;2022-08-21T04:57:38;99926.39;;;18.10;100.00
42951;BME280;28592;51.064;17.192;2022-08-21T05:00:27;99938.41;;;18.14;100.00
42951;BME280;28592;51.064;17.192;2022-08-21T05:03:16;99946.64;;;18.13;100.00
42951;BME280;28592;51.064;17.192;2022-08-21T05:06:07;99951.55;;;18.09;100.00
42951;BME280;28592;51.064;17.192;2022-08-21T05:08:55;99963.00;;;18.18;100.00
42951;BME280;28592;51.064;17.192;2022-08-21T05:11:41;99962.55;;;18.14;100.00
42951;BME280;28592;51.064;17.192;2022-08-21T05:14:29;99944.97;;;18.12;100.00
42951;BME280;28592;51.064;17.192;2022-08-21T05:17:15;99950.70;;;18.09;100.00
42951;BME280;28592;51.064;17.192;2022-08-21T05:20:01;99963.16;;;18.16;100.00
42951;BME280;28592;51.064;17.192;2022-08-21T05:22:47;99944.77;;;18.13;100.00
42951;BME280;28592;51.064;17.192;2022-08-21T05:25:32;99969.25;;;18.04;100.00
42951;BME280;28592;51.064;17.192;2022-08-21T05:28:18;99949.83;;;18.02;100.00
42951;BME280;28592;51.064;17.192;2022-08-21T05:31:03;99959.52;;;18.03;100.00
42951;BME280;28592;51.064;17.192;2022-08-21T05:33:49;99985.71;;;18.01;100.00
42951;BME280;28592;51.064;17.192;2022-08-21T05:36:34;99981.34;;;18.00;100.00
42951;BME280;28592;51.064;17.192;2022-08-21T05:39:19;99996.81;;;17.98;100.00
42951;BME280;28592;51.064;17.192;2022-08-21T05:42:05;99989.39;;;18.00;100.00
42951;BME280;28592;51.064;17.192;2022-08-21T05:44:51;99988.39;;;18.01;100.00
42951;BME280;28592;51.064;17.192;2022-08-21T05:47:40;99998.73;;;18.04;100.00
42951;BME280;28592;51.064;17.192;2022-08-21T05:50:27;100007.40;;;18.06;100.00
42951;BME280;28592;51.064;17.192;2022-08-21T05:53:20;99993.19;;;18.05;100.00
42951;BME280;28592;51.064;17.192;2022-08-21T05:56:05;100023.44;;;17.99;100.00
42951;BME280;28592;51.064;17.192;2022-08-21T05:59:00;100021.23;;;17.88;100.00
42951;BME280;28592;51.064;17.192;2022-08-21T06:01:46;100015.16;;;17.80;100.00
42951;BME280;28592;51.064;17.192;2022-08-21T06:04:35;100014.70;;;17.76;100.00
42951;BME280;28592;51.064;17.192;2022-08-21T06:07:27;100018.12;;;17.70;100.00
42951;BME280;28592;51.064;17.192;2022-08-21T06:10:14;100015.82;;;17.67;100.00
42951;BME280;28592;51.064;17.192;2022-08-21T06:13:05;100020.06;;;17.62;100.00
42951;BME280;28592;51.064;17.192;2022-08-21T06:18:47;100072.37;;;17.58;100.00
42951;BME280;28592;51.064;17.192;2022-08-21T06:21:33;100048.25;;;17.58;100.00
42951;BME280;28592;51.064;17.192;2022-08-21T06:24:18;100108.41;;;17.55;100.00
42951;BME280;28592;51.064;17.192;2022-08-21T06:27:05;100115.42;;;17.56;100.00
42951;BME280;28592;51.064;17.192;2022-08-21T06:29:50;100119.20;;;17.62;100.00
42951;BME280;28592;51.064;17.192;2022-08-21T06:32:36;100115.97;;;17.66;100.00
42951;BME280;28592;51.064;17.192;2022-08-21T06:35:24;100115.59;;;17.69;100.00
42951;BME280;28592;51.064;17.192;2022-08-21T06:38:10;100119.30;;;17.68;100.00
42951;BME280;28592;51.064;17.192;2022-08-21T06:40:55;100090.02;;;17.67;100.00
42951;BME280;28592;51.064;17.192;2022-08-21T06:43:40;100124.19;;;17.65;100.00
42951;BME280;28592;51.064;17.192;2022-08-21T06:46:30;100110.98;;;17.63;100.00
42951;BME280;28592;51.064;17.192;2022-08-21T06:49:16;100092.88;;;17.65;100.00
42951;BME280;28592;51.064;17.192;2022-08-21T06:52:01;100096.84;;;17.69;100.00
42951;BME280;28592;51.064;17.192;2022-08-21T06:54:47;100099.63;;;17.61;100.00
42951;BME280;28592;51.064;17.192;2022-08-21T06:57:33;100114.97;;;17.67;100.00
42951;BME280;28592;51.064;17.192;2022-08-21T07:00:18;100106.82;;;17.75;100.00
42951;BME280;28592;51.064;17.192;2022-08-21T07:03:04;100144.89;;;17.71;100.00
42951;BME280;28592;51.064;17.192;2022-08-21T07:05:49;100123.45;;;17.71;100.00
42951;BME280;28592;51.064;17.192;2022-08-21T07:08:36;100128.00;;;17.70;100.00
42951;BME280;28592;51.064;17.192;2022-08-21T07:11:23;100147.28;;;17.51;100.00
42951;BME280;28592;51.064;17.192;2022-08-21T07:14:09;100143.58;;;17.15;100.00
42951;BME280;28592;51.064;17.192;2022-08-21T07:16:54;100152.74;;;16.98;100.00
42951;BME280;28592;51.064;17.192;2022-08-21T07:19:42;100147.92;;;16.93;100.00
42951;BME280;28592;51.064;17.192;2022-08-21T07:22:28;100143.52;;;16.78;100.00
42951;BME280;28592;51.064;17.192;2022-08-21T07:25:13;100144.05;;;16.73;100.00
42951;BME280;28592;51.064;17.192;2022-08-21T07:27:59;100144.53;;;16.77;100.00
42951;BME280;28592;51.064;17.192;2022-08-21T07:30:46;100148.34;;;16.82;100.00
42951;BME280;28592;51.064;17.192;2022-08-21T07:33:34;100150.02;;;16.83;100.00
42951;BME280;28592;51.064;17.192;2022-08-21T07:36:20;100150.42;;;16.72;100.00
42951;BME280;28592;51.064;17.192;2022-08-21T07:39:05;100131.87;;;16.71;100.00
42951;BME280;28592;51.064;17.192;2022-08-21T07:41:52;100171.55;;;16.29;100.00
42951;BME280;28592;51.064;17.192;2022-08-21T07:44:40;100178.14;;;16.10;100.00
42951;BME280;28592;51.064;17.192;2022-08-21T07:47:26;100160.41;;;16.09;100.00
42951;BME280;28592;51.064;17.192;2022-08-21T07:50:12;100163.50;;;15.90;100.00
42951;BME280;28592;51.064;17.192;2022-08-21T07:52:57;100179.55;;;15.74;100.00
42951;BME280;28592;51.064;17.192;2022-08-21T07:55:42;100174.20;;;15.82;100.00
42951;BME280;28592;51.064;17.192;2022-08-21T07:58:28;100154.02;;;15.79;100.00
42951;BME280;28592;51.064;17.192;2022-08-21T08:01:13;100164.69;;;15.88;100.00
42951;BME280;28592;51.064;17.192;2022-08-21T08:03:59;100175.03;;;15.91;100.00
42951;BME280;28592;51.064;17.192;2022-08-21T08:06:44;100185.20;;;15.95;100.00
42951;BME280;28592;51.064;17.192;2022-08-21T08:09:30;100187.03;;;15.95;100.00
42951;BME280;28592;51.064;17.192;2022-08-21T08:12:16;100189.20;;;15.91;100.00
42951;BME280;28592;51.064;17.192;2022-08-21T08:15:04;100174.36;;;15.89;100.00
42951;BME280;28592;51.064;17.192;2022-08-21T08:17:54;100182.53;;;15.95;100.00
42951;BME280;28592;51.064;17.192;2022-08-21T08:20:40;100190.38;;;15.97;100.00
42951;BME280;28592;51.064;17.192;2022-08-21T08:23:26;100169.17;;;15.95;100.00
42951;BME280;28592;51.064;17.192;2022-08-21T08:26:13;100180.83;;;16.02;100.00
42951;BME280;28592;51.064;17.192;2022-08-21T08:29:00;100161.45;;;16.00;100.00
42951;BME280;28592;51.064;17.192;2022-08-21T08:31:45;100157.48;;;15.88;100.00
42951;BME280;28592;51.064;17.192;2022-08-21T08:34:30;100163.84;;;15.87;100.00
42951;BME280;28592;51.064;17.192;2022-08-21T08:37:16;100147.14;;;15.85;100.00
42951;BME280;28592;51.064;17.192;2022-08-21T08:40:01;100176.86;;;15.90;100.00
42951;BME280;28592;51.064;17.192;2022-08-21T08:42:46;100156.50;;;15.89;100.00
42951;BME280;28592;51.064;17.192;2022-08-21T08:45:36;100184.55;;;15.85;100.00
42951;BME280;28592;51.064;17.192;2022-08-21T08:48:36;100191.70;;;15.93;100.00
42951;BME280;28592;51.064;17.192;2022-08-21T08:51:32;100169.52;;;15.92;100.00
42951;BME280;28592;51.064;17.192;2022-08-21T08:57:18;100192.67;;;16.54;100.00
42951;BME280;28592;51.064;17.192;2022-08-21T09:00:08;100173.28;;;16.52;100.00
42951;BME280;28592;51.064;17.192;2022-08-21T09:02:57;100178.59;;;16.60;100.00
42951;BME280;28592;51.064;17.192;2022-08-21T09:14:47;100175.56;;;16.63;100.00
42951;BME280;28592;51.064;17.192;2022-08-21T09:17:39;100156.39;;;16.52;100.00
42951;BME280;28592;51.064;17.192;2022-08-21T09:20:32;100173.63;;;16.49;100.00
42951;BME280;28592;51.064;17.192;2022-08-21T09:26:19;100152.86;;;16.59;100.00
42951;BME280;28592;51.064;17.192;2022-08-21T09:29:06;100155.01;;;16.64;100.00
42951;BME280;28592;51.064;17.192;2022-08-21T09:31:59;100159.66;;;16.70;100.00
42951;BME280;28592;51.064;17.192;2022-08-21T09:37:55;100146.09;;;16.71;100.00
42951;BME280;28592;51.064;17.192;2022-08-21T09:40:46;100155.95;;;16.71;100.00
42951;BME280;28592;51.064;17.192;2022-08-21T09:43:34;100142.75;;;16.69;100.00
42951;BME280;28592;51.064;17.192;2022-08-21T09:46:22;100136.45;;;16.62;100.00
42951;BME280;28592;51.064;17.192;2022-08-21T09:49:08;100149.58;;;16.72;100.00
42951;BME280;28592;51.064;17.192;2022-08-21T09:51:54;100136.38;;;16.70;100.00
42951;BME280;28592;51.064;17.192;2022-08-21T09:54:45;100131.56;;;16.66;100.00
42951;BME280;28592;51.064;17.192;2022-08-21T09:57:37;100124.78;;;16.55;100.00
42951;BME280;28592;51.064;17.192;2022-08-21T10:00:35;100125.81;;;16.77;100.00
42951;BME280;28592;51.064;17.192;2022-08-21T10:03:27;100133.20;;;16.44;100.00
42951;BME280;28592;51.064;17.192;2022-08-21T10:06:25;100120.31;;;16.48;100.00
42951;BME280;28592;51.064;17.192;2022-08-21T10:09:21;100114.79;;;16.49;100.00
42951;BME280;28592;51.064;17.192;2022-08-21T10:12:21;100102.44;;;16.48;100.00
42951;BME280;28592;51.064;17.192;2022-08-21T10:21:20;100106.17;;;16.31;100.00
42951;BME280;28592;51.064;17.192;2022-08-21T10:24:23;100099.17;;;16.30;100.00
42951;BME280;28592;51.064;17.192;2022-08-21T10:30:25;100100.47;;;16.04;100.00
42951;BME280;28592;51.064;17.192;2022-08-21T10:36:25;100083.20;;;16.14;100.00
42951;BME280;28592;51.064;17.192;2022-08-21T10:51:21;100063.93;;;16.27;100.00
42951;BME280;28592;51.064;17.192;2022-08-21T11:00:16;100066.20;;;16.38;100.00
42951;BME280;28592;51.064;17.192;2022-08-21T11:03:13;100069.34;;;16.41;100.00
42951;BME280;28592;51.064;17.192;2022-08-21T11:06:11;100060.02;;;16.37;100.00
42951;BME280;28592;51.064;17.192;2022-08-21T11:09:15;100059.64;;;16.48;100.00
42951;BME280;28592;51.064;17.192;2022-08-21T11:18:16;100045.55;;;16.54;100.00
42951;BME280;28592;51.064;17.192;2022-08-21T11:24:19;100044.06;;;16.74;100.00
42951;BME280;28592;51.064;17.192;2022-08-21T11:30:10;100041.65;;;16.79;100.00
42951;BME280;28592;51.064;17.192;2022-08-21T11:36:25;100031.06;;;16.86;100.00
42951;BME280;28592;51.064;17.192;2022-08-21T11:51:10;100022.53;;;17.05;100.00
42951;BME280;28592;51.064;17.192;2022-08-21T12:03:33;100013.91;;;16.95;100.00
42951;BME280;28592;51.064;17.192;2022-08-21T12:06:12;100017.73;;;17.00;100.00
42951;BME280;28592;51.064;17.192;2022-08-21T12:09:04;100017.73;;;17.00;100.00
42951;BME280;28592;51.064;17.192;2022-08-21T12:12:01;100008.00;;;16.85;100.00
42951;BME280;28592;51.064;17.192;2022-08-21T12:14:51;100015.19;;;16.84;100.00
42951;BME280;28592;51.064;17.192;2022-08-21T12:17:57;100018.23;;;16.81;100.00
42951;BME280;28592;51.064;17.192;2022-08-21T12:21:02;100016.09;;;16.77;100.00
42951;BME280;28592;51.064;17.192;2022-08-21T12:26:54;100024.31;;;16.75;100.00
42951;BME280;28592;51.064;17.192;2022-08-21T12:29:49;100011.59;;;16.77;100.00
42951;BME280;28592;51.064;17.192;2022-08-21T12:32:54;100015.56;;;16.96;100.00
42951;BME280;28592;51.064;17.192;2022-08-21T12:35:42;100008.23;;;17.12;100.00
42951;BME280;28592;51.064;17.192;2022-08-21T12:38:42;100005.63;;;17.19;100.00
42951;BME280;28592;51.064;17.192;2022-08-21T12:41:43;99998.62;;;17.18;100.00
42951;BME280;28592;51.064;17.192;2022-08-21T12:44:42;99995.56;;;17.35;100.00
42951;BME280;28592;51.064;17.192;2022-08-21T12:47:36;99998.52;;;17.40;100.00
42951;BME280;28592;51.064;17.192;2022-08-21T12:53:41;100003.88;;;17.40;100.00
42951;BME280;28592;51.064;17.192;2022-08-21T12:56:33;99996.22;;;17.37;100.00
42951;BME280;28592;51.064;17.192;2022-08-21T12:59:25;100009.06;;;17.27;100.00
42951;BME280;28592;51.064;17.192;2022-08-21T13:02:19;100006.39;;;17.27;100.00
42951;BME280;28592;51.064;17.192;2022-08-21T13:05:15;100003.50;;;17.14;100.00
42951;BME280;28592;51.064;17.192;2022-08-21T13:08:10;99995.67;;;17.27;100.00
42951;BME280;28592;51.064;17.192;2022-08-21T13:11:04;100003.71;;;17.27;100.00
42951;BME280;28592;51.064;17.192;2022-08-21T13:13:53;100006.83;;;17.31;100.00
42951;BME280;28592;51.064;17.192;2022-08-21T13:16:41;100011.83;;;17.19;100.00
42951;BME280;28592;51.064;17.192;2022-08-21T13:19:32;100014.69;;;17.18;100.00
42951;BME280;28592;51.064;17.192;2022-08-21T13:22:20;100007.31;;;17.20;100.00
42951;BME280;28592;51.064;17.192;2022-08-21T13:25:18;99999.92;;;17.36;100.00
42951;BME280;28592;51.064;17.192;2022-08-21T13:28:09;100000.77;;;17.52;100.00
42951;BME280;28592;51.064;17.192;2022-08-21T13:31:00;100002.05;;;17.56;100.00
42951;BME280;28592;51.064;17.192;2022-08-21T13:33:53;100001.23;;;17.55;100.00
42951;BME280;28592;51.064;17.192;2022-08-21T13:36:42;100003.23;;;17.68;100.00
42951;BME280;28592;51.064;17.192;2022-08-21T13:39:31;99994.91;;;17.77;100.00
42951;BME280;28592;51.064;17.192;2022-08-21T13:42:23;99987.05;;;17.76;100.00
42951;BME280;28592;51.064;17.192;2022-08-21T13:45:21;100004.59;;;17.93;100.00
42951;BME280;28592;51.064;17.192;2022-08-21T13:48:12;99998.57;;;17.91;100.00
42951;BME280;28592;51.064;17.192;2022-08-21T13:51:03;99992.83;;;17.94;100.00
42951;BME280;28592;51.064;17.192;2022-08-21T13:53:52;99998.55;;;18.05;100.00
42951;BME280;28592;51.064;17.192;2022-08-21T13:56:46;99999.36;;;18.06;100.00
42951;BME280;28592;51.064;17.192;2022-08-21T13:59:35;99999.60;;;17.90;100.00
42951;BME280;28592;51.064;17.192;2022-08-21T14:02:24;99998.47;;;17.99;100.00
42951;BME280;28592;51.064;17.192;2022-08-21T14:05:21;99998.67;;;18.18;100.00
42951;BME280;28592;51.064;17.192;2022-08-21T14:11:13;100004.34;;;18.09;100.00
42951;BME280;28592;51.064;17.192;2022-08-21T14:14:05;100007.83;;;18.24;100.00
42951;BME280;28592;51.064;17.192;2022-08-21T14:17:05;100010.70;;;18.22;100.00
42951;BME280;28592;51.064;17.192;2022-08-21T14:19:53;100005.64;;;18.13;100.00
42951;BME280;28592;51.064;17.192;2022-08-21T14:22:46;100002.31;;;18.11;100.00
42951;BME280;28592;51.064;17.192;2022-08-21T14:25:43;100004.95;;;18.25;100.00
42951;BME280;28592;51.064;17.192;2022-08-21T14:28:39;100008.22;;;18.21;100.00
42951;BME280;28592;51.064;17.192;2022-08-21T14:31:30;100005.95;;;18.24;100.00
42951;BME280;28592;51.064;17.192;2022-08-21T14:34:27;100007.94;;;18.16;100.00
42951;BME280;28592;51.064;17.192;2022-08-21T14:37:16;99994.53;;;18.16;100.00
42951;BME280;28592;51.064;17.192;2022-08-21T14:40:05;100002.37;;;17.96;100.00
42951;BME280;28592;51.064;17.192;2022-08-21T14:42:54;100000.06;;;17.93;100.00
42951;BME280;28592;51.064;17.192;2022-08-21T14:45:42;100005.28;;;18.01;100.00
42951;BME280;28592;51.064;17.192;2022-08-21T14:48:31;99997.44;;;18.00;100.00
42951;BME280;28592;51.064;17.192;2022-08-21T14:51:19;100001.34;;;17.97;100.00
42951;BME280;28592;51.064;17.192;2022-08-21T14:54:07;100002.80;;;18.00;100.00
42951;BME280;28592;51.064;17.192;2022-08-21T14:57:03;100002.80;;;18.00;100.00
42951;BME280;28592;51.064;17.192;2022-08-21T14:59:53;100001.61;;;18.02;100.00
42951;BME280;28592;51.064;17.192;2022-08-21T15:02:43;100006.83;;;18.10;100.00
42951;BME280;28592;51.064;17.192;2022-08-21T15:05:32;100006.97;;;18.02;100.00
42951;BME280;28592;51.064;17.192;2022-08-21T15:08:21;100003.15;;;18.11;100.00
42951;BME280;28592;51.064;17.192;2022-08-21T15:11:14;100002.31;;;18.11;100.00
42951;BME280;28592;51.064;17.192;2022-08-21T15:14:07;100003.03;;;18.19;100.00
42951;BME280;28592;51.064;17.192;2022-08-21T15:16:56;99998.98;;;18.09;100.00
42951;BME280;28592;51.064;17.192;2022-08-21T15:19:47;99998.59;;;18.12;100.00
42951;BME280;28592;51.064;17.192;2022-08-21T15:22:38;100001.89;;;18.28;100.00
42951;BME280;28592;51.064;17.192;2022-08-21T15:25:26;100000.70;;;18.16;100.00
42951;BME280;28592;51.064;17.192;2022-08-21T15:28:18;100005.15;;;18.24;100.00
42951;BME280;28592;51.064;17.192;2022-08-21T15:31:08;99998.94;;;18.23;100.00
42951;BME280;28592;51.064;17.192;2022-08-21T15:33:59;99997.41;;;18.35;100.00
42951;BME280;28592;51.064;17.192;2022-08-21T15:36:48;99999.43;;;18.48;100.00
42951;BME280;28592;51.064;17.192;2022-08-21T15:39:39;99988.44;;;18.43;100.00
42951;BME280;28592;51.064;17.192;2022-08-21T15:42:28;99997.17;;;18.51;100.00
42951;BME280;28592;51.064;17.192;2022-08-21T15:45:15;100002.34;;;18.53;100.00
42951;BME280;28592;51.064;17.192;2022-08-21T15:48:07;100006.95;;;18.38;100.00
42951;BME280;28592;51.064;17.192;2022-08-21T15:50:56;100011.51;;;18.37;100.00
42951;BME280;28592;51.064;17.192;2022-08-21T15:53:44;100008.48;;;18.47;100.00
42951;BME280;28592;51.064;17.192;2022-08-21T15:56:38;100014.95;;;18.52;100.00
42951;BME280;28592;51.064;17.192;2022-08-21T15:59:40;99995.71;;;18.49;100.00
42951;BME280;28592;51.064;17.192;2022-08-21T16:02:31;99998.59;;;18.47;100.00
42951;BME280;28592;51.064;17.192;2022-08-21T16:05:20;100010.36;;;18.46;100.00